sensor_id;sensor_type;location;lat;lon;timestamp;temperature;humidity
52565;DHT22;38460;53.106;7.004;2023-06-14T00:00:31;15.40;85.90
52565;DHT22;38460;53.106;7.004;2023-06-14T00:02:57;15.40;86.00
52565;DHT22;38460;53.106;7.004;2023-06-14T00:05:23;15.40;86.30
52565;DHT22;38460;53.106;7.004;2023-06-14T00:07:49;15.40;86.70
52565;DHT22;38460;53.106;7.004;2023-06-14T00:10:19;15.40;87.20
52565;DHT22;38460;53.106;7.004;2023-06-14T00:12:44;15.30;87.60
52565;DHT22;38460;53.106;7.004;2023-06-14T00:15:10;15.30;87.60
52565;DHT22;38460;53.106;7.004;2023-06-14T00:17:36;15.30;87.80
52565;DHT22;38460;53.106;7.004;2023-06-14T00:20:03;15.30;88.30
52565;DHT22;38460;53.106;7.004;2023-06-14T00:22:33;15.20;88.10
52565;DHT22;38460;53.106;7.004;2023-06-14T00:24:59;15.20;88.90
52565;DHT22;38460;53.106;7.004;2023-06-14T00:27:25;15.10;89.70
52565;DHT22;38460;53.106;7.004;2023-06-14T00:29:51;15.10;89.80
52565;DHT22;38460;53.106;7.004;2023-06-14T00:32:18;15.00;90.00
52565;DHT22;38460;53.106;7.004;2023-06-14T00:34:44;15.10;90.20
52565;DHT22;38460;53.106;7.004;2023-06-14T00:37:10;15.00;90.10
52565;DHT22;38460;53.106;7.004;2023-06-14T00:39:35;15.00;90.20
52565;DHT22;38460;53.106;7.004;2023-06-14T00:42:01;15.00;90.60
52565;DHT22;38460;53.106;7.004;2023-06-14T00:44:27;15.00;90.70
52565;DHT22;38460;53.106;7.004;2023-06-14T00:46:53;14.90;91.20
52565;DHT22;38460;53.106;7.004;2023-06-14T00:49:19;14.90;91.00
52565;DHT22;38460;53.106;7.004;2023-06-14T00:51:45;14.90;91.40
52565;DHT22;38460;53.106;7.004;2023-06-14T00:54:11;14.80;91.70
52565;DHT22;38460;53.106;7.004;2023-06-14T00:56:37;14.80;91.70
52565;DHT22;38460;53.106;7.004;2023-06-14T00:59:03;14.80;91.60
52565;DHT22;38460;53.106;7.004;2023-06-14T01:01:30;14.80;91.90
52565;DHT22;38460;53.106;7.004;2023-06-14T01:04:01;14.80;91.60
52565;DHT22;38460;53.106;7.004;2023-06-14T01:11:41;14.70;92.50
52565;DHT22;38460;53.106;7.004;2023-06-14T01:14:11;14.70;93.60
52565;DHT22;38460;53.106;7.004;2023-06-14T01:16:38;14.70;93.10
52565;DHT22;38460;53.106;7.004;2023-06-14T01:19:05;14.60;93.50
52565;DHT22;38460;53.106;7.004;2023-06-14T01:21:32;14.60;93.80
52565;DHT22;38460;53.106;7.004;2023-06-14T01:24:08;14.60;94.30
52565;DHT22;38460;53.106;7.004;2023-06-14T01:26:35;14.60;94.00
52565;DHT22;38460;53.106;7.004;2023-06-14T01:29:03;14.50;94.80
52565;DHT22;38460;53.106;7.004;2023-06-14T01:31:30;14.50;94.80
52565;DHT22;38460;53.106;7.004;2023-06-14T01:34:05;14.40;95.00
52565;DHT22;38460;53.106;7.004;2023-06-14T01:36:31;14.40;94.90
52565;DHT22;38460;53.106;7.004;2023-06-14T01:38:59;14.40;95.50
52565;DHT22;38460;53.106;7.004;2023-06-14T01:41:25;14.40;95.50
52565;DHT22;38460;53.106;7.004;2023-06-14T01:43:52;14.50;95.40
52565;DHT22;38460;53.106;7.004;2023-06-14T01:46:20;14.40;96.10
52565;DHT22;38460;53.106;7.004;2023-06-14T01:48:46;14.40;95.80
52565;DHT22;38460;53.106;7.004;2023-06-14T01:51:11;14.40;96.40
52565;DHT22;38460;53.106;7.004;2023-06-14T01:53:37;14.40;96.80
52565;DHT22;38460;53.106;7.004;2023-06-14T01:56:03;14.30;96.80
52565;DHT22;38460;53.106;7.004;2023-06-14T01:58:29;14.30;97.10
52565;DHT22;38460;53.106;7.004;2023-06-14T02:00:55;14.20;97.90
52565;DHT22;38460;53.106;7.004;2023-06-14T02:03:22;14.20;97.70
52565;DHT22;38460;53.106;7.004;2023-06-14T02:05:48;14.20;98.00
52565;DHT22;38460;53.106;7.004;2023-06-14T02:08:14;14.20;98.50
52565;DHT22;38460;53.106;7.004;2023-06-14T02:10:40;14.10;99.00
52565;DHT22;38460;53.106;7.004;2023-06-14T02:13:06;14.10;99.20
52565;DHT22;38460;53.106;7.004;2023-06-14T02:15:31;14.10;99.30
52565;DHT22;38460;53.106;7.004;2023-06-14T02:18:02;14.00;99.60
52565;DHT22;38460;53.106;7.004;2023-06-14T02:20:28;14.00;99.90
52565;DHT22;38460;53.106;7.004;2023-06-14T02:22:55;14.00;99.90
52565;DHT22;38460;53.106;7.004;2023-06-14T02:25:20;13.90;99.90
52565;DHT22;38460;53.106;7.004;2023-06-14T02:27:46;13.80;99.90
52565;DHT22;38460;53.106;7.004;2023-06-14T02:30:12;13.80;99.90
52565;DHT22;38460;53.106;7.004;2023-06-14T02:32:38;13.80;99.90
52565;DHT22;38460;53.106;7.004;2023-06-14T02:35:06;13.80;99.90
52565;DHT22;38460;53.106;7.004;2023-06-14T02:37:32;13.80;99.90
52565;DHT22;38460;53.106;7.004;2023-06-14T02:39:59;13.80;99.90
52565;DHT22;38460;53.106;7.004;2023-06-14T02:42:24;13.80;99.90
52565;DHT22;38460;53.106;7.004;2023-06-14T02:44:50;13.80;99.90
52565;DHT22;38460;53.106;7.004;2023-06-14T02:47:20;13.70;99.90
52565;DHT22;38460;53.106;7.004;2023-06-14T02:49:46;13.80;99.90
52565;DHT22;38460;53.106;7.004;2023-06-14T02:52:15;13.80;99.90
52565;DHT22;38460;53.106;7.004;2023-06-14T02:54:40;13.80;99.90
52565;DHT22;38460;53.106;7.004;2023-06-14T02:57:07;13.80;99.90
52565;DHT22;38460;53.106;7.004;2023-06-14T02:59:34;13.80;99.90
52565;DHT22;38460;53.106;7.004;2023-06-14T03:02:00;13.80;99.90
52565;DHT22;38460;53.106;7.004;2023-06-14T03:04:26;13.80;99.90
52565;DHT22;38460;53.106;7.004;2023-06-14T03:06:52;13.80;99.90
52565;DHT22;38460;53.106;7.004;2023-06-14T03:09:19;13.80;99.90
52565;DHT22;38460;53.106;7.004;2023-06-14T03:11:45;13.80;99.90
52565;DHT22;38460;53.106;7.004;2023-06-14T03:14:11;13.80;99.90
52565;DHT22;38460;53.106;7.004;2023-06-14T03:16:39;13.80;99.90
52565;DHT22;38460;53.106;7.004;2023-06-14T03:19:06;13.80;99.90
52565;DHT22;38460;53.106;7.004;2023-06-14T03:21:32;13.80;99.90
52565;DHT22;38460;53.106;7.004;2023-06-14T03:24:00;13.80;99.90
52565;DHT22;38460;53.106;7.004;2023-06-14T03:26:25;13.70;99.90
52565;DHT22;38460;53.106;7.004;2023-06-14T03:28:51;13.70;99.90
52565;DHT22;38460;53.106;7.004;2023-06-14T03:31:17;13.70;99.90
52565;DHT22;38460;53.106;7.004;2023-06-14T03:33:44;13.70;99.90
52565;DHT22;38460;53.106;7.004;2023-06-14T03:36:10;13.70;99.90
52565;DHT22;38460;53.106;7.004;2023-06-14T03:38:36;13.70;99.90
52565;DHT22;38460;53.106;7.004;2023-06-14T03:41:02;13.70;99.90
52565;DHT22;38460;53.106;7.004;2023-06-14T03:43:27;13.70;99.90
52565;DHT22;38460;53.106;7.004;2023-06-14T03:45:55;13.70;99.90
52565;DHT22;38460;53.106;7.004;2023-06-14T03:48:21;13.70;99.90
52565;DHT22;38460;53.106;7.004;2023-06-14T03:50:46;13.70;99.90
52565;DHT22;38460;53.106;7.004;2023-06-14T03:53:12;13.70;99.90
52565;DHT22;38460;53.106;7.004;2023-06-14T03:55:38;13.70;99.90
52565;DHT22;38460;53.106;7.004;2023-06-14T03:58:05;13.70;99.90
52565;DHT22;38460;53.106;7.004;2023-06-14T04:00:31;13.70;99.90
52565;DHT22;38460;53.106;7.004;2023-06-14T04:02:57;13.70;99.90
52565;DHT22;38460;53.106;7.004;2023-06-14T04:05:23;13.70;99.90
52565;DHT22;38460;53.106;7.004;2023-06-14T04:07:52;13.70;99.90
52565;DHT22;38460;53.106;7.004;2023-06-14T04:10:21;13.70;99.90
52565;DHT22;38460;53.106;7.004;2023-06-14T04:12:47;13.70;99.90
52565;DHT22;38460;53.106;7.004;2023-06-14T04:15:12;13.70;99.90
52565;DHT22;38460;53.106;7.004;2023-06-14T04:17:39;13.70;99.90
52565;DHT22;38460;53.106;7.004;2023-06-14T04:20:05;13.70;99.90
52565;DHT22;38460;53.106;7.004;2023-06-14T04:22:33;13.70;99.90
52565;DHT22;38460;53.106;7.004;2023-06-14T04:24:59;13.70;99.90
52565;DHT22;38460;53.106;7.004;2023-06-14T04:27:26;13.80;99.90
52565;DHT22;38460;53.106;7.004;2023-06-14T04:29:52;13.80;99.90
52565;DHT22;38460;53.106;7.004;2023-06-14T04:32:28;13.80;99.90
52565;DHT22;38460;53.106;7.004;2023-06-14T04:34:55;13.80;99.90
52565;DHT22;38460;53.106;7.004;2023-06-14T04:37:22;13.80;99.90
52565;DHT22;38460;53.106;7.004;2023-06-14T04:39:48;13.80;99.90
52565;DHT22;38460;53.106;7.004;2023-06-14T04:42:14;13.90;99.90
52565;DHT22;38460;53.106;7.004;2023-06-14T04:44:42;13.90;99.90
52565;DHT22;38460;53.106;7.004;2023-06-14T04:47:09;13.90;99.90
52565;DHT22;38460;53.106;7.004;2023-06-14T04:49:35;13.90;99.90
52565;DHT22;38460;53.106;7.004;2023-06-14T04:52:01;14.00;99.90
52565;DHT22;38460;53.106;7.004;2023-06-14T04:54:27;14.00;99.90
52565;DHT22;38460;53.106;7.004;2023-06-14T04:56:53;14.10;99.90
52565;DHT22;38460;53.106;7.004;2023-06-14T04:59:21;14.10;99.90
52565;DHT22;38460;53.106;7.004;2023-06-14T05:01:49;14.20;99.90
52565;DHT22;38460;53.106;7.004;2023-06-14T05:04:15;14.20;99.90
52565;DHT22;38460;53.106;7.004;2023-06-14T05:06:42;14.30;99.90
52565;DHT22;38460;53.106;7.004;2023-06-14T05:09:11;14.30;99.90
52565;DHT22;38460;53.106;7.004;2023-06-14T05:11:36;14.40;99.90
52565;DHT22;38460;53.106;7.004;2023-06-14T05:14:02;14.40;99.90
52565;DHT22;38460;53.106;7.004;2023-06-14T05:16:28;14.50;99.90
52565;DHT22;38460;53.106;7.004;2023-06-14T05:18:55;14.60;99.90
52565;DHT22;38460;53.106;7.004;2023-06-14T05:21:21;14.70;99.90
52565;DHT22;38460;53.106;7.004;2023-06-14T05:23:46;14.70;99.90
52565;DHT22;38460;53.106;7.004;2023-06-14T05:26:12;14.80;99.90
52565;DHT22;38460;53.106;7.004;2023-06-14T05:28:38;14.90;99.90
52565;DHT22;38460;53.106;7.004;2023-06-14T05:31:04;14.90;99.90
52565;DHT22;38460;53.106;7.004;2023-06-14T05:33:30;15.00;99.90
52565;DHT22;38460;53.106;7.004;2023-06-14T05:35:55;15.10;99.90
52565;DHT22;38460;53.106;7.004;2023-06-14T05:38:21;15.20;99.90
52565;DHT22;38460;53.106;7.004;2023-06-14T05:40:47;15.30;99.90
52565;DHT22;38460;53.106;7.004;2023-06-14T05:43:13;15.40;99.90
52565;DHT22;38460;53.106;7.004;2023-06-14T05:45:39;15.40;99.90
52565;DHT22;38460;53.106;7.004;2023-06-14T05:48:05;15.50;99.90
52565;DHT22;38460;53.106;7.004;2023-06-14T05:50:30;15.60;99.90
52565;DHT22;38460;53.106;7.004;2023-06-14T05:52:56;15.70;99.90
52565;DHT22;38460;53.106;7.004;2023-06-14T05:55:22;15.80;99.90
52565;DHT22;38460;53.106;7.004;2023-06-14T05:57:48;15.90;99.90
52565;DHT22;38460;53.106;7.004;2023-06-14T06:00:14;16.00;99.90
52565;DHT22;38460;53.106;7.004;2023-06-14T06:02:42;16.10;99.90
52565;DHT22;38460;53.106;7.004;2023-06-14T06:05:12;16.10;99.90
52565;DHT22;38460;53.106;7.004;2023-06-14T06:07:38;16.20;99.90
52565;DHT22;38460;53.106;7.004;2023-06-14T06:10:10;16.30;99.90
52565;DHT22;38460;53.106;7.004;2023-06-14T06:12:36;16.40;99.90
52565;DHT22;38460;53.106;7.004;2023-06-14T06:15:01;16.50;99.90
52565;DHT22;38460;53.106;7.004;2023-06-14T06:17:28;16.60;99.90
52565;DHT22;38460;53.106;7.004;2023-06-14T06:19:54;16.70;99.90
52565;DHT22;38460;53.106;7.004;2023-06-14T06:22:20;16.80;99.90
52565;DHT22;38460;53.106;7.004;2023-06-14T06:24:46;16.80;99.90
52565;DHT22;38460;53.106;7.004;2023-06-14T06:27:12;16.90;99.90
52565;DHT22;38460;53.106;7.004;2023-06-14T06:29:38;17.00;99.90
52565;DHT22;38460;53.106;7.004;2023-06-14T06:32:04;17.10;99.90
52565;DHT22;38460;53.106;7.004;2023-06-14T06:34:30;17.20;99.90
52565;DHT22;38460;53.106;7.004;2023-06-14T06:36:56;17.30;99.90
52565;DHT22;38460;53.106;7.004;2023-06-14T06:39:21;17.30;99.90
52565;DHT22;38460;53.106;7.004;2023-06-14T06:41:47;17.40;99.90
52565;DHT22;38460;53.106;7.004;2023-06-14T06:44:13;17.50;99.90
52565;DHT22;38460;53.106;7.004;2023-06-14T06:46:39;17.60;99.90
52565;DHT22;38460;53.106;7.004;2023-06-14T06:49:10;17.70;99.90
52565;DHT22;38460;53.106;7.004;2023-06-14T06:51:41;17.70;99.80
52565;DHT22;38460;53.106;7.004;2023-06-14T06:54:07;17.80;99.60
52565;DHT22;38460;53.106;7.004;2023-06-14T06:56:34;17.90;99.40
52565;DHT22;38460;53.106;7.004;2023-06-14T06:59:00;18.00;99.10
52565;DHT22;38460;53.106;7.004;2023-06-14T07:01:26;18.10;98.80
52565;DHT22;38460;53.106;7.004;2023-06-14T07:03:54;18.10;98.50
52565;DHT22;38460;53.106;7.004;2023-06-14T07:06:21;18.20;98.30
52565;DHT22;38460;53.106;7.004;2023-06-14T07:08:46;18.30;98.10
52565;DHT22;38460;53.106;7.004;2023-06-14T07:11:15;18.30;97.70
52565;DHT22;38460;53.106;7.004;2023-06-14T07:13:41;18.40;97.70
52565;DHT22;38460;53.106;7.004;2023-06-14T07:16:06;18.50;97.20
52565;DHT22;38460;53.106;7.004;2023-06-14T07:18:32;18.50;97.30
52565;DHT22;38460;53.106;7.004;2023-06-14T07:20:58;18.60;97.30
52565;DHT22;38460;53.106;7.004;2023-06-14T07:23:23;18.70;97.00
52565;DHT22;38460;53.106;7.004;2023-06-14T07:25:50;18.70;96.70
52565;DHT22;38460;53.106;7.004;2023-06-14T07:28:17;18.80;96.50
52565;DHT22;38460;53.106;7.004;2023-06-14T07:30:43;18.90;96.40
52565;DHT22;38460;53.106;7.004;2023-06-14T07:33:09;18.90;96.40
52565;DHT22;38460;53.106;7.004;2023-06-14T07:35:35;19.00;96.20
52565;DHT22;38460;53.106;7.004;2023-06-14T07:38:01;19.00;96.00
52565;DHT22;38460;53.106;7.004;2023-06-14T07:40:27;19.10;95.80
52565;DHT22;38460;53.106;7.004;2023-06-14T07:42:53;19.10;95.60
52565;DHT22;38460;53.106;7.004;2023-06-14T07:45:20;19.20;95.50
52565;DHT22;38460;53.106;7.004;2023-06-14T07:47:46;19.30;95.30
52565;DHT22;38460;53.106;7.004;2023-06-14T07:50:12;19.30;95.00
52565;DHT22;38460;53.106;7.004;2023-06-14T07:52:39;19.40;94.70
52565;DHT22;38460;53.106;7.004;2023-06-14T07:55:05;19.50;94.60
52565;DHT22;38460;53.106;7.004;2023-06-14T07:57:31;19.50;94.50
52565;DHT22;38460;53.106;7.004;2023-06-14T07:59:57;19.50;94.40
52565;DHT22;38460;53.106;7.004;2023-06-14T08:02:23;19.60;94.30
52565;DHT22;38460;53.106;7.004;2023-06-14T08:04:48;19.70;94.20
52565;DHT22;38460;53.106;7.004;2023-06-14T08:07:14;19.70;94.20
52565;DHT22;38460;53.106;7.004;2023-06-14T08:09:40;19.80;94.10
52565;DHT22;38460;53.106;7.004;2023-06-14T08:12:07;19.90;94.00
52565;DHT22;38460;53.106;7.004;2023-06-14T08:14:35;20.00;93.80
52565;DHT22;38460;53.106;7.004;2023-06-14T08:17:01;20.10;93.20
52565;DHT22;38460;53.106;7.004;2023-06-14T08:19:26;20.10;92.90
52565;DHT22;38460;53.106;7.004;2023-06-14T08:21:52;20.10;92.70
52565;DHT22;38460;53.106;7.004;2023-06-14T08:24:21;20.20;92.90
52565;DHT22;38460;53.106;7.004;2023-06-14T08:26:50;20.30;92.40
52565;DHT22;38460;53.106;7.004;2023-06-14T08:29:16;20.40;92.30
52565;DHT22;38460;53.106;7.004;2023-06-14T08:31:42;20.40;92.20
52565;DHT22;38460;53.106;7.004;2023-06-14T08:34:07;20.40;92.10
52565;DHT22;38460;53.106;7.004;2023-06-14T08:36:35;20.50;92.00
52565;DHT22;38460;53.106;7.004;2023-06-14T08:39:01;20.50;91.90
52565;DHT22;38460;53.106;7.004;2023-06-14T08:41:28;20.60;91.80
52565;DHT22;38460;53.106;7.004;2023-06-14T08:43:55;20.70;91.70
52565;DHT22;38460;53.106;7.004;2023-06-14T08:46:25;20.70;91.50
52565;DHT22;38460;53.106;7.004;2023-06-14T08:48:55;20.80;91.60
52565;DHT22;38460;53.106;7.004;2023-06-14T08:51:22;20.80;91.60
52565;DHT22;38460;53.106;7.004;2023-06-14T08:53:54;20.90;91.50
52565;DHT22;38460;53.106;7.004;2023-06-14T08:56:26;20.90;91.50
52565;DHT22;38460;53.106;7.004;2023-06-14T08:58:56;20.90;90.40
52565;DHT22;38460;53.106;7.004;2023-06-14T09:01:23;20.90;89.70
52565;DHT22;38460;53.106;7.004;2023-06-14T09:03:49;21.00;90.80
52565;DHT22;38460;53.106;7.004;2023-06-14T09:06:16;21.00;90.30
52565;DHT22;38460;53.106;7.004;2023-06-14T09:08:42;21.00;90.10
52565;DHT22;38460;53.106;7.004;2023-06-14T09:11:11;21.10;89.40
52565;DHT22;38460;53.106;7.004;2023-06-14T09:13:38;21.10;88.20
52565;DHT22;38460;53.106;7.004;2023-06-14T09:16:05;21.20;89.60
52565;DHT22;38460;53.106;7.004;2023-06-14T09:21:00;21.30;88.60
52565;DHT22;38460;53.106;7.004;2023-06-14T09:23:26;21.30;88.80
52565;DHT22;38460;53.106;7.004;2023-06-14T09:25:52;21.40;89.00
52565;DHT22;38460;53.106;7.004;2023-06-14T09:28:18;21.50;89.10
52565;DHT22;38460;53.106;7.004;2023-06-14T09:30:45;21.60;89.20
52565;DHT22;38460;53.106;7.004;2023-06-14T09:33:17;21.70;87.60
52565;DHT22;38460;53.106;7.004;2023-06-14T09:35:45;21.60;87.30
52565;DHT22;38460;53.106;7.004;2023-06-14T09:38:11;21.70;87.20
52565;DHT22;38460;53.106;7.004;2023-06-14T09:40:37;21.70;87.90
52565;DHT22;38460;53.106;7.004;2023-06-14T09:43:06;21.80;87.30
52565;DHT22;38460;53.106;7.004;2023-06-14T09:45:35;21.80;86.60
52565;DHT22;38460;53.106;7.004;2023-06-14T09:48:02;21.90;87.20
52565;DHT22;38460;53.106;7.004;2023-06-14T09:50:28;22.00;86.90
52565;DHT22;38460;53.106;7.004;2023-06-14T09:52:59;22.00;86.50
52565;DHT22;38460;53.106;7.004;2023-06-14T09:55:29;22.20;86.40
52565;DHT22;38460;53.106;7.004;2023-06-14T09:57:57;22.10;81.70
52565;DHT22;38460;53.106;7.004;2023-06-14T10:00:23;22.10;82.40
52565;DHT22;38460;53.106;7.004;2023-06-14T10:02:53;22.20;82.70
52565;DHT22;38460;53.106;7.004;2023-06-14T10:05:20;22.30;82.70
52565;DHT22;38460;53.106;7.004;2023-06-14T10:07:56;22.30;81.70
52565;DHT22;38460;53.106;7.004;2023-06-14T10:10:25;22.40;80.60
52565;DHT22;38460;53.106;7.004;2023-06-14T10:12:51;22.40;79.50
52565;DHT22;38460;53.106;7.004;2023-06-14T10:23:42;22.40;75.60
52565;DHT22;38460;53.106;7.004;2023-06-14T10:26:21;22.50;77.00
52565;DHT22;38460;53.106;7.004;2023-06-14T10:29:01;22.50;77.00
52565;DHT22;38460;53.106;7.004;2023-06-14T10:31:46;22.60;76.80
52565;DHT22;38460;53.106;7.004;2023-06-14T10:34:27;22.70;76.10
52565;DHT22;38460;53.106;7.004;2023-06-14T10:37:02;22.70;76.10
52565;DHT22;38460;53.106;7.004;2023-06-14T10:39:28;22.70;76.20
52565;DHT22;38460;53.106;7.004;2023-06-14T10:41:56;22.70;76.40
52565;DHT22;38460;53.106;7.004;2023-06-14T10:46:48;22.80;76.20
52565;DHT22;38460;53.106;7.004;2023-06-14T10:49:18;22.90;76.30
52565;DHT22;38460;53.106;7.004;2023-06-14T10:51:51;22.90;76.30
52565;DHT22;38460;53.106;7.004;2023-06-14T10:54:21;23.00;76.00
52565;DHT22;38460;53.106;7.004;2023-06-14T10:56:52;23.00;75.40
52565;DHT22;38460;53.106;7.004;2023-06-14T10:59:19;23.00;74.70
52565;DHT22;38460;53.106;7.004;2023-06-14T11:04:51;23.10;74.20
52565;DHT22;38460;53.106;7.004;2023-06-14T11:07:55;23.10;74.60
52565;DHT22;38460;53.106;7.004;2023-06-14T11:10:40;23.20;74.50
52565;DHT22;38460;53.106;7.004;2023-06-14T11:13:08;23.30;73.90
52565;DHT22;38460;53.106;7.004;2023-06-14T11:15:35;23.30;74.40
52565;DHT22;38460;53.106;7.004;2023-06-14T11:18:05;23.40;74.30
52565;DHT22;38460;53.106;7.004;2023-06-14T11:20:34;23.40;74.30
52565;DHT22;38460;53.106;7.004;2023-06-14T11:23:01;23.50;74.80
52565;DHT22;38460;53.106;7.004;2023-06-14T11:25:27;23.60;74.10
52565;DHT22;38460;53.106;7.004;2023-06-14T11:27:56;23.60;74.20
52565;DHT22;38460;53.106;7.004;2023-06-14T11:30:23;23.70;74.00
52565;DHT22;38460;53.106;7.004;2023-06-14T11:32:50;23.70;73.80
52565;DHT22;38460;53.106;7.004;2023-06-14T11:35:18;23.80;73.60
52565;DHT22;38460;53.106;7.004;2023-06-14T11:37:44;23.80;73.90
52565;DHT22;38460;53.106;7.004;2023-06-14T11:40:11;23.90;73.80
52565;DHT22;38460;53.106;7.004;2023-06-14T11:42:39;24.00;73.80
52565;DHT22;38460;53.106;7.004;2023-06-14T11:45:10;24.00;72.90
52565;DHT22;38460;53.106;7.004;2023-06-14T11:47:37;24.10;72.70
52565;DHT22;38460;53.106;7.004;2023-06-14T11:50:05;24.20;72.90
52565;DHT22;38460;53.106;7.004;2023-06-14T11:52:32;24.30;72.80
52565;DHT22;38460;53.106;7.004;2023-06-14T11:54:58;24.20;72.60
52565;DHT22;38460;53.106;7.004;2023-06-14T11:57:25;24.30;72.00
52565;DHT22;38460;53.106;7.004;2023-06-14T11:59:51;24.20;71.60
52565;DHT22;38460;53.106;7.004;2023-06-14T12:02:19;24.30;71.60
52565;DHT22;38460;53.106;7.004;2023-06-14T12:04:48;24.30;71.40
52565;DHT22;38460;53.106;7.004;2023-06-14T12:07:15;24.40;71.40
52565;DHT22;38460;53.106;7.004;2023-06-14T12:10:03;24.40;71.40
52565;DHT22;38460;53.106;7.004;2023-06-14T12:12:35;24.50;71.50
52565;DHT22;38460;53.106;7.004;2023-06-14T12:15:03;24.60;71.30
52565;DHT22;38460;53.106;7.004;2023-06-14T12:17:35;24.60;71.20
52565;DHT22;38460;53.106;7.004;2023-06-14T12:20:09;24.70;71.20
52565;DHT22;38460;53.106;7.004;2023-06-14T12:22:52;24.80;71.40
52565;DHT22;38460;53.106;7.004;2023-06-14T12:25:33;24.90;70.90
52565;DHT22;38460;53.106;7.004;2023-06-14T12:28:05;25.00;70.70
52565;DHT22;38460;53.106;7.004;2023-06-14T12:30:32;24.90;69.60
52565;DHT22;38460;53.106;7.004;2023-06-14T12:32:58;24.80;69.30
52565;DHT22;38460;53.106;7.004;2023-06-14T12:35:24;24.60;68.30
52565;DHT22;38460;53.106;7.004;2023-06-14T12:37:50;24.60;69.20
52565;DHT22;38460;53.106;7.004;2023-06-14T12:40:15;24.60;69.40
52565;DHT22;38460;53.106;7.004;2023-06-14T12:42:41;24.50;69.40
52565;DHT22;38460;53.106;7.004;2023-06-14T12:45:08;24.60;69.60
52565;DHT22;38460;53.106;7.004;2023-06-14T12:47:34;24.80;70.10
52565;DHT22;38460;53.106;7.004;2023-06-14T12:50:00;25.00;70.00
52565;DHT22;38460;53.106;7.004;2023-06-14T12:52:26;25.10;69.80
52565;DHT22;38460;53.106;7.004;2023-06-14T12:54:52;25.10;69.80
52565;DHT22;38460;53.106;7.004;2023-06-14T12:57:18;25.10;69.30
52565;DHT22;38460;53.106;7.004;2023-06-14T12:59:43;25.10;69.20
52565;DHT22;38460;53.106;7.004;2023-06-14T13:02:17;25.10;69.10
52565;DHT22;38460;53.106;7.004;2023-06-14T13:04:44;25.00;68.70
52565;DHT22;38460;53.106;7.004;2023-06-14T13:07:09;24.90;68.80
52565;DHT22;38460;53.106;7.004;2023-06-14T13:09:40;24.80;68.90
52565;DHT22;38460;53.106;7.004;2023-06-14T13:12:06;24.80;69.40
52565;DHT22;38460;53.106;7.004;2023-06-14T13:14:32;24.80;69.70
52565;DHT22;38460;53.106;7.004;2023-06-14T13:16:58;24.80;69.50
52565;DHT22;38460;53.106;7.004;2023-06-14T13:19:24;24.80;69.40
52565;DHT22;38460;53.106;7.004;2023-06-14T13:21:49;24.60;69.20
52565;DHT22;38460;53.106;7.004;2023-06-14T13:24:15;24.60;69.50
52565;DHT22;38460;53.106;7.004;2023-06-14T13:26:41;24.50;69.40
52565;DHT22;38460;53.106;7.004;2023-06-14T13:29:07;24.60;69.60
52565;DHT22;38460;53.106;7.004;2023-06-14T13:31:32;24.60;69.60
52565;DHT22;38460;53.106;7.004;2023-06-14T13:33:59;24.60;69.40
52565;DHT22;38460;53.106;7.004;2023-06-14T13:36:24;24.60;68.70
52565;DHT22;38460;53.106;7.004;2023-06-14T13:38:50;24.80;69.00
52565;DHT22;38460;53.106;7.004;2023-06-14T13:41:18;25.10;69.30
52565;DHT22;38460;53.106;7.004;2023-06-14T13:43:43;25.40;69.30
52565;DHT22;38460;53.106;7.004;2023-06-14T13:46:09;25.60;68.80
52565;DHT22;38460;53.106;7.004;2023-06-14T13:48:35;25.90;69.70
52565;DHT22;38460;53.106;7.004;2023-06-14T13:51:01;26.20;68.50
52565;DHT22;38460;53.106;7.004;2023-06-14T13:53:29;26.40;67.50
52565;DHT22;38460;53.106;7.004;2023-06-14T13:55:55;26.70;67.10
52565;DHT22;38460;53.106;7.004;2023-06-14T13:58:21;26.90;66.60
52565;DHT22;38460;53.106;7.004;2023-06-14T14:00:46;26.90;64.60
52565;DHT22;38460;53.106;7.004;2023-06-14T14:03:12;27.10;66.00
52565;DHT22;38460;53.106;7.004;2023-06-14T14:05:38;26.90;65.70
52565;DHT22;38460;53.106;7.004;2023-06-14T14:08:04;26.70;66.40
52565;DHT22;38460;53.106;7.004;2023-06-14T14:10:30;26.60;66.60
52565;DHT22;38460;53.106;7.004;2023-06-14T14:12:56;26.30;65.90
52565;DHT22;38460;53.106;7.004;2023-06-14T14:15:22;26.20;66.00
52565;DHT22;38460;53.106;7.004;2023-06-14T14:17:48;26.30;65.60
52565;DHT22;38460;53.106;7.004;2023-06-14T14:20:13;26.30;66.00
52565;DHT22;38460;53.106;7.004;2023-06-14T14:22:43;26.00;65.00
52565;DHT22;38460;53.106;7.004;2023-06-14T14:25:09;25.80;65.50
52565;DHT22;38460;53.106;7.004;2023-06-14T14:27:36;25.90;65.20
52565;DHT22;38460;53.106;7.004;2023-06-14T14:30:04;26.00;65.00
52565;DHT22;38460;53.106;7.004;2023-06-14T14:32:30;26.30;65.00
52565;DHT22;38460;53.106;7.004;2023-06-14T14:34:55;26.50;65.40
52565;DHT22;38460;53.106;7.004;2023-06-14T14:37:21;26.80;63.90
52565;DHT22;38460;53.106;7.004;2023-06-14T14:39:47;26.60;63.70
52565;DHT22;38460;53.106;7.004;2023-06-14T14:42:12;26.30;62.60
52565;DHT22;38460;53.106;7.004;2023-06-14T14:44:39;26.30;63.80
52565;DHT22;38460;53.106;7.004;2023-06-14T14:47:05;26.30;63.80
52565;DHT22;38460;53.106;7.004;2023-06-14T14:49:31;26.40;63.70
52565;DHT22;38460;53.106;7.004;2023-06-14T14:51:57;26.70;63.60
52565;DHT22;38460;53.106;7.004;2023-06-14T14:54:24;26.90;63.30
52565;DHT22;38460;53.106;7.004;2023-06-14T14:56:51;27.10;63.60
52565;DHT22;38460;53.106;7.004;2023-06-14T14:59:17;27.40;63.60
52565;DHT22;38460;53.106;7.004;2023-06-14T15:01:44;27.40;63.40
52565;DHT22;38460;53.106;7.004;2023-06-14T15:04:11;27.50;62.80
52565;DHT22;38460;53.106;7.004;2023-06-14T15:06:37;27.60;62.90
52565;DHT22;38460;53.106;7.004;2023-06-14T15:09:04;27.80;62.50
52565;DHT22;38460;53.106;7.004;2023-06-14T15:11:30;27.90;62.20
52565;DHT22;38460;53.106;7.004;2023-06-14T15:13:55;28.00;62.20
52565;DHT22;38460;53.106;7.004;2023-06-14T15:16:21;28.10;61.70
52565;DHT22;38460;53.106;7.004;2023-06-14T15:18:47;28.10;61.50
52565;DHT22;38460;53.106;7.004;2023-06-14T15:21:13;28.20;62.20
52565;DHT22;38460;53.106;7.004;2023-06-14T15:23:38;28.20;61.10
52565;DHT22;38460;53.106;7.004;2023-06-14T15:26:04;27.70;59.20
52565;DHT22;38460;53.106;7.004;2023-06-14T15:28:30;27.40;60.30
52565;DHT22;38460;53.106;7.004;2023-06-14T15:30:59;26.90;60.50
52565;DHT22;38460;53.106;7.004;2023-06-14T15:33:25;26.80;61.90
52565;DHT22;38460;53.106;7.004;2023-06-14T15:35:50;26.60;62.10
52565;DHT22;38460;53.106;7.004;2023-06-14T15:38:16;26.60;62.30
52565;DHT22;38460;53.106;7.004;2023-06-14T15:40:42;26.70;62.20
52565;DHT22;38460;53.106;7.004;2023-06-14T15:43:07;26.80;62.20
52565;DHT22;38460;53.106;7.004;2023-06-14T15:45:33;27.10;62.00
52565;DHT22;38460;53.106;7.004;2023-06-14T15:47:59;27.50;62.10
52565;DHT22;38460;53.106;7.004;2023-06-14T15:50:26;27.70;60.80